createdAt,value
2019-05-12T00:00:48.429Z,88.3543
2019-05-12T00:01:51.309Z,89.0455
2019-05-12T00:02:54.310Z,88.7098
2019-05-12T00:03:58.062Z,88.8930
2019-05-12T00:05:01.289Z,89.3065
2019-05-12T00:06:04.327Z,88.8746
2019-05-12T00:07:08.703Z,89.1493
2019-05-12T00:08:12.328Z,89.1310
2019-05-12T00:09:15.300Z,89.2638
2019-05-12T00:10:18.306Z,88.9265
2019-05-12T00:11:21.299Z,89.1722
2019-05-12T00:12:24.351Z,89.3233
2019-05-12T00:13:27.888Z,89.1218
2019-05-12T00:14:31.299Z,88.9998
2019-05-12T00:15:34.320Z,89.0394
2019-05-12T00:16:38.437Z,89.0394
2019-05-12T00:17:41.368Z,89.0867
2019-05-12T00:18:43.276Z,89.2180
2019-05-12T00:19:47.912Z,89.3980
2019-05-12T00:20:51.287Z,89.3416
2019-05-12T00:21:54.295Z,90.1076
2019-05-12T00:22:58.143Z,90.0984
2019-05-12T00:24:01.315Z,89.8497
2019-05-12T00:25:04.299Z,89.1875
2019-05-12T00:26:07.929Z,89.6223
2019-05-12T00:27:11.315Z,89.8543
2019-05-12T00:28:14.330Z,89.6086
2019-05-12T00:29:18.459Z,89.6498
2019-05-12T00:30:21.285Z,89.7231
2019-05-12T00:31:24.342Z,89.7627
2019-05-12T00:32:28.185Z,89.5766
2019-05-12T00:33:30.307Z,88.3070
2019-05-12T00:34:32.423Z,88.1666
2019-05-12T00:35:37.849Z,87.3457
2019-05-12T00:36:41.316Z,87.4479
2019-05-12T00:37:44.325Z,87.8462
2019-05-12T00:38:48.495Z,87.3137
2019-05-12T00:39:51.326Z,88.0278
2019-05-12T00:40:54.319Z,88.0461
2019-05-12T00:41:58.641Z,87.5486
2019-05-12T00:43:02.366Z,86.9581
2019-05-12T00:44:05.304Z,85.3635
2019-05-12T00:45:08.338Z,85.1545
2019-05-12T00:46:11.326Z,84.7776
2019-05-12T00:47:14.266Z,85.2460
2019-05-12T00:48:17.823Z,85.6062
2019-05-12T00:49:21.306Z,85.4887
2019-05-12T00:50:24.362Z,85.5940
2019-05-12T00:51:28.845Z,86.3493
2019-05-12T00:52:32.295Z,86.0288
2019-05-12T00:53:40.142Z,85.5879
2019-05-12T00:54:43.318Z,86.1875
2019-05-12T00:55:47.661Z,85.9236
2019-05-12T00:56:49.293Z,85.9648
2019-05-12T00:57:52.341Z,86.0273
2019-05-12T00:58:55.395Z,85.9815
2019-05-12T01:00:00.319Z,85.4932
2019-05-12T01:01:02.264Z,85.7893
2019-05-12T01:02:05.305Z,84.8966
2019-05-12T01:03:08.882Z,84.0772
2019-05-12T01:04:11.316Z,83.9353
2019-05-12T01:05:14.320Z,84.5090
2019-05-12T01:06:17.801Z,85.0065
2019-05-12T01:07:21.301Z,85.0309
2019-05-12T01:08:24.313Z,84.7379
2019-05-12T01:09:28.143Z,84.0681
2019-05-12T01:10:31.301Z,84.2237
2019-05-12T01:11:34.377Z,84.1733
2019-05-12T01:12:38.288Z,84.3122
2019-05-12T01:13:41.309Z,83.9445
2019-05-12T01:14:44.325Z,83.7797
2019-05-12T01:15:48.151Z,82.9923
2019-05-12T01:16:51.291Z,83.4684
2019-05-12T01:17:54.293Z,83.2547
2019-05-12T01:18:58.587Z,83.4836
2019-05-12T01:20:01.311Z,81.5915
2019-05-12T01:21:04.289Z,82.0401
2019-05-12T01:22:08.092Z,81.2848
2019-05-12T01:23:11.329Z,81.2177
2019-05-12T01:24:13.305Z,81.7166
2019-05-12T01:25:17.625Z,80.8820
2019-05-12T01:26:20.330Z,80.7630
2019-05-12T01:27:23.290Z,80.9567
2019-05-12T01:28:27.859Z,79.8474
2019-05-12T01:29:31.288Z,80.5982
2019-05-12T01:30:33.345Z,79.5514
2019-05-12T01:31:37.802Z,80.0076
2019-05-12T01:32:41.308Z,79.3301
2019-05-12T01:33:44.341Z,79.8245
2019-05-12T01:34:48.680Z,79.8611
2019-05-12T01:35:51.321Z,79.5132
2019-05-12T01:36:54.298Z,80.6027
2019-05-12T01:38:01.073Z,79.7299
2019-05-12T01:39:04.309Z,79.6429
2019-05-12T01:40:08.910Z,79.9725
2019-05-12T01:41:12.287Z,79.7330
2019-05-12T01:42:18.063Z,80.4715
2019-05-12T01:43:21.441Z,80.2960
2019-05-12T01:44:24.304Z,80.2960
2019-05-12T01:45:28.836Z,80.0275
2019-05-12T01:46:32.324Z,79.4644
2019-05-12T01:47:35.299Z,79.3729
2019-05-12T01:48:38.298Z,79.7833
2019-05-12T01:49:41.292Z,79.5193
2019-05-12T01:50:44.325Z,79.8260
2019-05-12T01:51:47.637Z,80.0229
2019-05-12T01:52:50.320Z,79.9039
2019-05-12T01:54:07.865Z,79.8260
2019-05-12T01:55:01.319Z,80.3021
2019-05-12T01:56:04.330Z,80.4150
2019-05-12T01:57:08.134Z,80.5127
2019-05-12T01:58:11.308Z,80.3204
2019-05-12T01:59:14.325Z,80.4379
2019-05-12T02:00:18.369Z,79.8901
2019-05-12T02:01:21.306Z,80.2411
2019-05-12T02:02:24.268Z,80.4059
2019-05-12T02:03:28.392Z,80.0946
2019-05-12T02:04:31.308Z,80.2838
2019-05-12T02:05:34.338Z,80.0580
2019-05-12T02:06:38.644Z,79.9710
2019-05-12T02:07:42.297Z,80.3708
2019-05-12T02:08:47.609Z,80.5264
2019-05-12T02:09:51.332Z,80.4807
2019-05-12T02:10:54.271Z,80.3418
2019-05-12T02:11:58.229Z,80.8133
2019-05-12T02:13:01.310Z,80.7538
2019-05-12T02:14:04.328Z,80.8225
2019-05-12T02:15:08.172Z,80.9567
2019-05-12T02:16:11.286Z,81.1337
2019-05-12T02:17:14.323Z,81.0300
2019-05-12T02:18:17.787Z,81.0376
2019-05-12T02:19:21.327Z,80.9369
2019-05-12T02:20:24.278Z,80.9689
2019-05-12T02:21:27.942Z,81.2589
2019-05-12T02:22:31.310Z,80.4074
2019-05-12T02:23:34.314Z,80.6165
2019-05-12T02:24:39.025Z,81.2177
2019-05-12T02:25:42.302Z,81.2482
2019-05-12T02:26:45.296Z,81.4267
2019-05-12T02:27:48.301Z,80.6684
2019-05-12T02:28:51.338Z,80.9293
2019-05-12T02:29:54.304Z,80.7309
2019-05-12T02:30:58.998Z,81.0468
2019-05-12T02:32:02.290Z,81.3123
2019-05-12T02:33:05.219Z,81.5930
2019-05-12T02:34:07.707Z,81.7838
2019-05-12T02:35:10.312Z,81.1536
2019-05-12T02:36:15.088Z,81.1017
2019-05-12T02:37:18.280Z,80.5844
2019-05-12T02:38:21.284Z,80.4807
2019-05-12T02:39:25.009Z,80.5203
2019-05-12T02:40:27.334Z,79.5514
2019-05-12T02:41:30.284Z,79.2355
2019-05-12T02:42:34.926Z,77.4685
2019-05-12T02:43:38.312Z,77.9065
2019-05-12T02:44:43.700Z,78.0270
2019-05-12T02:45:47.286Z,77.1557
2019-05-12T02:46:50.268Z,77.3678
2019-05-12T02:47:54.306Z,77.1481
2019-05-12T02:48:57.295Z,76.9589
2019-05-12T02:50:00.315Z,77.0230
2019-05-12T02:51:05.492Z,77.0199
2019-05-12T02:52:07.317Z,77.2213
2019-05-12T02:53:10.288Z,76.6674
2019-05-12T02:54:14.388Z,75.7198
2019-05-12T02:55:17.296Z,76.2325
2019-05-12T02:56:20.305Z,75.3170
2019-05-12T02:57:25.535Z,76.1807
2019-05-12T02:58:29.276Z,76.2768
2019-05-12T02:59:34.723Z,76.8231
2019-05-12T03:00:38.347Z,76.5255
2019-05-12T03:01:41.294Z,76.8826
2019-05-12T03:02:44.397Z,76.6537
2019-05-12T03:03:47.289Z,76.4645
2019-05-12T03:04:50.376Z,76.8597
2019-05-12T03:05:54.858Z,77.3434
2019-05-12T03:07:02.078Z,77.0092
2019-05-12T03:08:06.289Z,77.1298
2019-05-12T03:09:09.305Z,76.8917
2019-05-12T03:10:14.584Z,76.8093
2019-05-12T03:11:17.334Z,77.0565
2019-05-12T03:12:20.252Z,77.1374
2019-05-12T03:13:25.030Z,77.0138
2019-05-12T03:14:28.294Z,77.0703
2019-05-12T03:15:31.299Z,76.9512
2019-05-12T03:16:35.110Z,77.3083
2019-05-12T03:17:38.279Z,76.7529
2019-05-12T03:18:44.685Z,77.1695
2019-05-12T03:19:48.299Z,76.4294
2019-05-12T03:20:54.079Z,76.6171
2019-05-12T03:21:57.288Z,77.1420
2019-05-12T03:23:00.328Z,77.0382
2019-05-12T03:24:05.697Z,77.3297
2019-05-12T03:25:19.958Z,76.3500
2019-05-12T03:26:17.307Z,76.7773
2019-05-12T03:27:20.320Z,76.9970
2019-05-12T03:28:25.610Z,76.5103
2019-05-12T03:29:29.316Z,76.7361
2019-05-12T03:30:37.135Z,76.6217
2019-05-12T03:31:41.332Z,76.8551
2019-05-12T03:32:47.229Z,76.7178
2019-05-12T03:33:54.249Z,77.2534
2019-05-12T03:34:59.356Z,76.4370
2019-05-12T03:36:08.434Z,76.7025
2019-05-12T03:37:10.329Z,76.8582
2019-05-12T03:38:14.820Z,76.3241
2019-05-12T03:39:18.266Z,76.2997
2019-05-12T03:40:24.693Z,76.7636
2019-05-12T03:41:28.300Z,76.9497
2019-05-12T03:42:31.293Z,77.1328
2019-05-12T03:43:35.136Z,77.0611
2019-05-12T03:44:38.347Z,77.3724
2019-05-12T03:45:44.978Z,77.5631
2019-05-12T03:46:47.288Z,77.8942
2019-05-12T03:47:50.299Z,78.7366
2019-05-12T03:48:55.365Z,79.0829
2019-05-12T03:49:58.340Z,79.2340
2019-05-12T03:51:01.284Z,78.5107
2019-05-12T03:52:05.228Z,78.7900
2019-05-12T03:53:10.839Z,78.6480
2019-05-12T03:54:15.244Z,78.6938
2019-05-12T03:55:31.678Z,78.4298
2019-05-12T03:56:26.471Z,78.6984
2019-05-12T03:57:29.285Z,79.0112
2019-05-12T03:58:34.559Z,79.9023
2019-05-12T03:59:38.293Z,80.3006
2019-05-12T04:00:44.184Z,79.5422
2019-05-12T04:01:46.286Z,79.4553
2019-05-12T04:02:49.295Z,79.2615
2019-05-12T04:03:54.200Z,78.9242
2019-05-12T04:04:57.301Z,79.1974
2019-05-12T04:06:00.329Z,79.6460
2019-05-12T04:07:05.133Z,79.5285
2019-05-12T04:08:08.316Z,80.2243
2019-05-12T04:09:11.292Z,80.4334
2019-05-12T04:10:15.598Z,78.5992
2019-05-12T04:11:19.308Z,78.9273
2019-05-12T04:12:25.302Z,79.2401
2019-05-12T04:13:28.248Z,78.6587
2019-05-12T04:14:34.367Z,77.9538
2019-05-12T04:15:37.313Z,78.2589
2019-05-12T04:16:40.335Z,77.7005
2019-05-12T04:17:45.231Z,77.8607
2019-05-12T04:18:48.289Z,77.7935
2019-05-12T04:19:51.347Z,77.0687
2019-05-12T04:20:54.587Z,77.3449
2019-05-12T04:21:57.349Z,77.8897
2019-05-12T04:23:00.279Z,78.0041
2019-05-12T04:24:05.556Z,77.5372
2019-05-12T04:25:08.328Z,78.0529
2019-05-12T04:26:15.736Z,78.5245
2019-05-12T04:27:19.266Z,78.5122
2019-05-12T04:28:24.559Z,78.9151
2019-05-12T04:29:27.286Z,79.3866
2019-05-12T04:30:30.356Z,79.5193
2019-05-12T04:31:34.759Z,79.7482
2019-05-12T04:32:38.297Z,80.0229
2019-05-12T04:33:41.307Z,80.5585
2019-05-12T04:34:44.732Z,80.0671
2019-05-12T04:35:48.331Z,80.8042
2019-05-12T04:36:51.320Z,80.3876
2019-05-12T04:37:55.290Z,80.7187
2019-05-12T04:38:58.289Z,79.7574
2019-05-12T04:40:01.316Z,79.6139
2019-05-12T04:41:05.863Z,79.6841
2019-05-12T04:42:09.265Z,78.6313
2019-05-12T04:43:14.560Z,78.0453
2019-05-12T04:44:17.282Z,78.8998
2019-05-12T04:45:20.323Z,78.5657
2019-05-12T04:46:25.284Z,78.4237
2019-05-12T04:47:27.310Z,77.7020
2019-05-12T04:48:30.291Z,78.6343
2019-05-12T04:49:34.626Z,77.8241
2019-05-12T04:50:37.325Z,77.2061
2019-05-12T04:51:40.279Z,77.4350
2019-05-12T04:52:44.648Z,78.6801
2019-05-12T04:53:48.272Z,78.9426
2019-05-12T04:54:51.292Z,79.7345
2019-05-12T04:56:09.662Z,79.7513
2019-05-12T04:57:04.178Z,78.4695
2019-05-12T04:58:07.286Z,78.2589
2019-05-12T04:59:10.301Z,76.9314
2019-05-12T05:00:15.860Z,77.4594
2019-05-12T05:01:19.287Z,77.5540
2019-05-12T05:02:25.060Z,76.6262
2019-05-12T05:03:28.300Z,76.4569
2019-05-12T05:04:31.320Z,75.0225
2019-05-12T05:05:35.324Z,75.4849
2019-05-12T05:06:39.295Z,74.7936
2019-05-12T05:07:44.834Z,75.3765
2019-05-12T05:08:48.295Z,74.5998
2019-05-12T05:09:51.326Z,75.1598
2019-05-12T05:10:54.885Z,75.2300
2019-05-12T05:11:58.299Z,74.8516
2019-05-12T05:13:01.290Z,74.5815
2019-05-12T05:14:04.460Z,74.9340
2019-05-12T05:15:07.326Z,75.1781
2019-05-12T05:16:10.316Z,74.7005
2019-05-12T05:17:15.072Z,74.3770
2019-05-12T05:18:18.288Z,73.8857
2019-05-12T05:19:21.264Z,73.7987
2019-05-12T05:20:24.349Z,73.8949
2019-05-12T05:21:27.283Z,73.2967
2019-05-12T05:22:30.254Z,73.0892
2019-05-12T05:23:33.588Z,73.1044
2019-05-12T05:24:35.304Z,73.3318
2019-05-12T05:25:38.358Z,72.5597
2019-05-12T05:26:43.448Z,73.7942
2019-05-12T05:27:46.312Z,73.2784
2019-05-12T05:28:49.268Z,73.0617
2019-05-12T05:29:54.184Z,72.5170
2019-05-12T05:30:57.287Z,72.5048
2019-05-12T05:32:00.289Z,72.4392
2019-05-12T05:33:04.490Z,72.7382
2019-05-12T05:34:08.278Z,73.2036
2019-05-12T05:35:13.301Z,73.0312
2019-05-12T05:36:19.746Z,72.9076
2019-05-12T05:37:23.921Z,73.0571
2019-05-12T05:38:27.290Z,72.9473
2019-05-12T05:39:30.300Z,71.8944
2019-05-12T05:40:35.359Z,70.4219
2019-05-12T05:41:40.337Z,69.2668
2019-05-12T05:42:47.285Z,69.1722
2019-05-12T05:43:54.278Z,69.1203
2019-05-12T05:44:57.269Z,68.4749
2019-05-12T05:46:07.048Z,68.0583
2019-05-12T05:47:10.337Z,68.4016
2019-05-12T05:48:13.705Z,68.0079
2019-05-12T05:49:16.301Z,67.7424
2019-05-12T05:50:25.106Z,67.6524
2019-05-12T05:51:27.332Z,66.3233
2019-05-12T05:52:33.062Z,65.4124
2019-05-12T05:53:38.306Z,66.2150
2019-05-12T05:54:41.271Z,67.3854
2019-05-12T05:55:44.342Z,68.4810
2019-05-12T05:56:57.498Z,69.8955
2019-05-12T05:57:59.708Z,69.7902
2019-05-12T05:59:05.337Z,70.8278
2019-05-12T06:00:17.320Z,70.7607
2019-05-12T06:01:16.355Z,71.1391
2019-05-12T06:02:24.440Z,71.1086
2019-05-12T06:03:28.054Z,70.1610
2019-05-12T06:04:31.298Z,69.0196
2019-05-12T06:05:38.544Z,68.2567
2019-05-12T06:06:50.405Z,67.2404
2019-05-12T06:07:50.304Z,66.5354
2019-05-12T06:08:54.496Z,66.7811
2019-05-12T06:09:57.317Z,66.7491
2019-05-12T06:11:00.300Z,66.1631
2019-05-12T06:12:05.280Z,67.3030
2019-05-12T06:13:11.253Z,68.8319
2019-05-12T06:14:16.276Z,69.7887
2019-05-12T06:15:19.285Z,70.9285
2019-05-12T06:16:25.088Z,71.3832
2019-05-12T06:17:28.290Z,71.8456
2019-05-12T06:18:33.305Z,71.6701
2019-05-12T06:19:36.306Z,71.6793
2019-05-12T06:20:39.268Z,70.3700
2019-05-12T06:21:44.055Z,70.4860
2019-05-12T06:22:48.603Z,69.1722
2019-05-12T06:23:55.315Z,68.9570
2019-05-12T06:24:59.004Z,69.0120
2019-05-12T06:26:04.352Z,68.3970
2019-05-12T06:27:15.112Z,68.0369
2019-05-12T06:28:16.264Z,67.9042
2019-05-12T06:29:20.789Z,68.8609
2019-05-12T06:30:25.288Z,68.5496
2019-05-12T06:31:29.806Z,69.4636
2019-05-12T06:32:33.675Z,68.8685
2019-05-12T06:33:36.507Z,68.4077
2019-05-12T06:34:39.299Z,68.3330
2019-05-12T06:35:45.124Z,67.4495
2019-05-12T06:36:48.335Z,67.5151
2019-05-12T06:38:00.185Z,66.7643
2019-05-12T06:38:59.297Z,66.3661
2019-05-12T06:40:03.589Z,67.8431
2019-05-12T06:41:06.333Z,67.2480
2019-05-12T06:42:14.134Z,67.2709
2019-05-12T06:43:17.335Z,67.6112
2019-05-12T06:44:20.272Z,67.9408
2019-05-12T06:45:23.530Z,68.2567
2019-05-12T06:46:26.300Z,69.6941
2019-05-12T06:47:28.327Z,69.6925
2019-05-12T06:48:33.210Z,70.4753
2019-05-12T06:49:36.309Z,70.1473
2019-05-12T06:50:39.567Z,70.4753
2019-05-12T06:51:44.295Z,69.8711
2019-05-12T06:52:49.123Z,69.7673
2019-05-12T06:53:53.463Z,69.7398
2019-05-12T06:54:56.810Z,69.2683
2019-05-12T06:56:00.318Z,68.6732
2019-05-12T06:57:18.548Z,69.0608
2019-05-12T06:58:13.811Z,69.1035
2019-05-12T06:59:17.338Z,69.0578
2019-05-12T07:00:22.378Z,68.4581
2019-05-12T07:01:28.315Z,67.5105
2019-05-12T07:02:37.188Z,68.1376
2019-05-12T07:03:39.281Z,67.8248
2019-05-12T07:04:47.498Z,68.5023
2019-05-12T07:05:50.270Z,68.3467
2019-05-12T07:06:56.086Z,68.6946
2019-05-12T07:08:04.000Z,68.6214
2019-05-12T07:09:09.864Z,68.6091
2019-05-12T07:10:35.172Z,68.2277
2019-05-12T07:11:24.292Z,67.4311
2019-05-12T07:12:32.781Z,68.3116
2019-05-12T07:13:34.362Z,68.4520
2019-05-12T07:14:37.328Z,68.5634
2019-05-12T07:15:40.730Z,69.2302
2019-05-12T07:16:44.296Z,69.9397
2019-05-12T07:17:49.738Z,70.0038
2019-05-12T07:18:54.176Z,69.6193
2019-05-12T07:19:58.363Z,69.5064
2019-05-12T07:21:01.334Z,68.4840
2019-05-12T07:22:18.844Z,68.7419
2019-05-12T07:23:14.261Z,69.1386
2019-05-12T07:24:17.330Z,68.6305
2019-05-12T07:25:22.933Z,68.7770
2019-05-12T07:26:28.308Z,68.7083
2019-05-12T07:27:36.814Z,68.6030
2019-05-12T07:28:40.471Z,68.5115
2019-05-12T07:29:43.667Z,68.0369
2019-05-12T07:30:46.294Z,67.9805
2019-05-12T07:31:49.294Z,68.1834
2019-05-12T07:32:59.379Z,68.9509
2019-05-12T07:34:00.285Z,68.9509
2019-05-12T07:35:03.913Z,68.4352
2019-05-12T07:36:07.270Z,67.4052
2019-05-12T07:37:10.283Z,67.5334
2019-05-12T07:38:20.970Z,68.1041
2019-05-12T07:39:21.299Z,68.5802
2019-05-12T07:40:29.719Z,67.3045
2019-05-12T07:41:34.201Z,69.0013
2019-05-12T07:42:39.536Z,67.9896
2019-05-12T07:43:44.357Z,68.1376
2019-05-12T07:44:47.322Z,68.5451
2019-05-12T07:45:53.979Z,68.8869
2019-05-12T07:46:58.316Z,68.1605
2019-05-12T07:48:08.144Z,67.8630
2019-05-12T07:49:09.304Z,68.0919
2019-05-12T07:50:16.192Z,68.7221
2019-05-12T07:51:20.306Z,67.6478
2019-05-12T07:52:24.235Z,67.8950
2019-05-12T07:53:27.319Z,67.3228
2019-05-12T07:54:35.344Z,67.2221
2019-05-12T07:55:39.856Z,67.1077
2019-05-12T07:56:46.300Z,66.9139
2019-05-12T07:57:55.368Z,66.9917
2019-05-12T07:58:57.344Z,65.5039
2019-05-12T08:00:00.294Z,64.8035
2019-05-12T08:01:07.662Z,64.9653
2019-05-12T08:02:10.280Z,64.7181
2019-05-12T08:03:19.005Z,64.7578
2019-05-12T08:04:21.303Z,63.7644
2019-05-12T08:05:24.326Z,63.6454
2019-05-12T08:06:31.870Z,64.2176
2019-05-12T08:07:35.307Z,63.4943
2019-05-12T08:08:41.884Z,64.0436
2019-05-12T08:09:46.326Z,64.0345
2019-05-12T08:10:51.503Z,63.5538
2019-05-12T08:11:56.342Z,62.3926
2019-05-12T08:13:00.883Z,62.6856
2019-05-12T08:14:04.288Z,61.5396
2019-05-12T08:15:09.596Z,61.3016
2019-05-12T08:16:14.171Z,62.0935
2019-05-12T08:17:19.658Z,62.5116
2019-05-12T08:18:24.616Z,61.3214
2019-05-12T08:19:28.575Z,61.7060
2019-05-12T08:20:31.305Z,61.0498
2019-05-12T08:21:34.757Z,62.5208
2019-05-12T08:22:43.609Z,60.1480
2019-05-12T08:23:47.308Z,61.3947
2019-05-12T08:24:50.312Z,60.8133
2019-05-12T08:25:54.025Z,58.8678
2019-05-12T08:27:03.332Z,58.7442
2019-05-12T08:28:14.968Z,57.3465
2019-05-12T08:29:16.889Z,55.7412
2019-05-12T08:30:21.271Z,57.2747
2019-05-12T08:31:31.894Z,51.9783
2019-05-12T08:32:33.869Z,52.0226
2019-05-12T08:33:37.291Z,50.2754
2019-05-12T08:34:40.311Z,53.0800
2019-05-12T08:35:43.902Z,52.1965
2019-05-12T08:36:53.276Z,52.4025
2019-05-12T08:37:55.307Z,56.7803
2019-05-12T08:38:58.316Z,57.0321
2019-05-12T08:40:04.366Z,53.3593
2019-05-12T08:41:09.285Z,56.4416
2019-05-12T08:42:14.377Z,54.2306
2019-05-12T08:43:17.291Z,53.1182
2019-05-12T08:44:24.842Z,51.3970
2019-05-12T08:45:34.002Z,49.6620
2019-05-12T08:46:36.292Z,45.3117
2019-05-12T08:47:39.365Z,49.2912
2019-05-12T08:48:44.390Z,46.8879
2019-05-12T08:49:55.156Z,47.2847
2019-05-12T08:50:56.315Z,46.3096
2019-05-12T08:52:00.360Z,46.2379
2019-05-12T08:53:04.704Z,44.0864
2019-05-12T08:54:08.501Z,48.3619
2019-05-12T08:55:13.856Z,51.7113
2019-05-12T08:56:22.886Z,53.3959
2019-05-12T08:57:34.827Z,54.2290
2019-05-12T08:58:47.301Z,55.9960
2019-05-12T08:59:44.119Z,51.1711
2019-05-12T09:00:50.307Z,48.7083
2019-05-12T09:01:54.297Z,48.7999
2019-05-12T09:02:57.327Z,49.5827
2019-05-12T09:04:05.423Z,51.2825
2019-05-12T09:05:08.299Z,53.6385
2019-05-12T09:06:17.919Z,53.7865
2019-05-12T09:07:19.304Z,55.3002
2019-05-12T09:08:24.218Z,55.6390
2019-05-12T09:09:27.271Z,53.0358
2019-05-12T09:10:30.326Z,49.2866
2019-05-12T09:11:33.688Z,49.2439
2019-05-12T09:12:37.303Z,46.8589
2019-05-12T09:13:40.340Z,47.2206
2019-05-12T09:14:46.161Z,47.5654
2019-05-12T09:15:49.343Z,47.3411
2019-05-12T09:16:53.670Z,47.4083
2019-05-12T09:18:00.370Z,48.3513
2019-05-12T09:19:04.883Z,48.4245
2019-05-12T09:20:08.656Z,51.3497
2019-05-12T09:21:14.054Z,49.7810
2019-05-12T09:22:20.836Z,52.3110
2019-05-12T09:23:24.350Z,51.7937
2019-05-12T09:24:27.551Z,50.9712
2019-05-12T09:25:30.357Z,51.7983
2019-05-12T09:26:34.438Z,50.4753
2019-05-12T09:27:39.452Z,49.8802
2019-05-12T09:28:50.086Z,48.5679
2019-05-12T09:29:54.014Z,45.0523
2019-05-12T09:30:57.403Z,46.2791
2019-05-12T09:32:05.467Z,49.1569
2019-05-12T09:33:08.331Z,52.6146
2019-05-12T09:34:13.482Z,52.0592
2019-05-12T09:35:19.307Z,51.9738
2019-05-12T09:36:24.278Z,52.0607
2019-05-12T09:37:30.909Z,51.7769
2019-05-12T09:38:35.331Z,51.4611
2019-05-12T09:39:42.454Z,52.1248
2019-05-12T09:40:46.329Z,52.1004
2019-05-12T09:41:52.583Z,50.7225
2019-05-12T09:43:00.250Z,50.8568
2019-05-12T09:44:05.311Z,49.5750
2019-05-12T09:45:10.504Z,51.1772
2019-05-12T09:46:14.518Z,52.6970
2019-05-12T09:47:22.948Z,53.9925
2019-05-12T09:48:25.338Z,53.9605
2019-05-12T09:49:38.451Z,53.4188
2019-05-12T09:50:36.310Z,52.5948
2019-05-12T09:51:45.649Z,51.7388
2019-05-12T09:52:50.186Z,52.2011
2019-05-12T09:53:55.562Z,49.9916
2019-05-12T09:54:59.307Z,49.0562
2019-05-12T09:56:04.349Z,49.5003
2019-05-12T09:57:07.363Z,48.9754
2019-05-12T09:58:13.976Z,49.3233
2019-05-12T09:59:22.568Z,48.4764
2019-05-12T10:00:25.334Z,46.8925
2019-05-12T10:01:29.267Z,47.6204
2019-05-12T10:02:36.336Z,46.4302
2019-05-12T10:03:40.154Z,48.2368
2019-05-12T10:04:43.765Z,47.6463
2019-05-12T10:05:46.311Z,46.8864
2019-05-12T10:06:49.355Z,49.7429
2019-05-12T10:07:53.623Z,50.1274
2019-05-12T10:08:56.308Z,49.1386
2019-05-12T10:09:59.173Z,50.2190
2019-05-12T10:11:03.723Z,45.7511
2019-05-12T10:12:07.321Z,45.2522
2019-05-12T10:13:10.305Z,44.4160
2019-05-12T10:14:13.975Z,43.6515
2019-05-12T10:15:18.710Z,42.5666
2019-05-12T10:16:25.304Z,41.7884
2019-05-12T10:17:30.135Z,44.2786
2019-05-12T10:18:33.646Z,46.3020
2019-05-12T10:19:37.314Z,44.2496
2019-05-12T10:20:40.283Z,43.9902
2019-05-12T10:21:44.013Z,46.8772
2019-05-12T10:22:47.328Z,48.2017
2019-05-12T10:23:51.517Z,49.1676
2019-05-12T10:24:58.701Z,49.6025
2019-05-12T10:26:09.471Z,48.3467
2019-05-12T10:27:10.317Z,48.1819
2019-05-12T10:28:15.898Z,44.7440
2019-05-12T10:29:20.804Z,44.2100
2019-05-12T10:30:24.289Z,45.4185
2019-05-12T10:31:29.529Z,46.8147
2019-05-12T10:32:35.315Z,46.8223
2019-05-12T10:33:38.318Z,47.6783
2019-05-12T10:34:41.290Z,48.7739
2019-05-12T10:35:44.315Z,48.4489
2019-05-12T10:36:49.220Z,49.5293
2019-05-12T10:37:53.745Z,50.5730
2019-05-12T10:38:57.326Z,49.6010
2019-05-12T10:40:00.340Z,49.5979
2019-05-12T10:41:04.319Z,49.9260
2019-05-12T10:42:07.292Z,50.1747
2019-05-12T10:43:10.363Z,50.0771
2019-05-12T10:44:13.931Z,50.2068
2019-05-12T10:45:20.605Z,49.7292
2019-05-12T10:46:28.627Z,51.3603
2019-05-12T10:47:34.262Z,49.6239
2019-05-12T10:48:38.357Z,49.5430
2019-05-12T10:49:41.310Z,48.7648
2019-05-12T10:50:44.248Z,49.3538
2019-05-12T10:51:47.778Z,49.3324
2019-05-12T10:52:53.519Z,48.8090
2019-05-12T10:54:01.965Z,48.9372
2019-05-12T10:55:04.515Z,50.3166
2019-05-12T10:56:06.288Z,50.6600
2019-05-12T10:57:09.363Z,50.0496
2019-05-12T10:58:14.346Z,49.9947
2019-05-12T10:59:29.167Z,49.7475
2019-05-12T11:00:26.854Z,49.1356
2019-05-12T11:01:30.292Z,45.8625
2019-05-12T11:02:33.680Z,47.7607
2019-05-12T11:03:37.311Z,47.8126
2019-05-12T11:04:41.281Z,48.9845
2019-05-12T11:05:46.354Z,47.5456
2019-05-12T11:06:49.328Z,47.0939
2019-05-12T11:07:53.978Z,45.9800
2019-05-12T11:08:57.334Z,44.6769
2019-05-12T11:10:03.536Z,42.7070
2019-05-12T11:11:08.325Z,42.2461
2019-05-12T11:12:13.663Z,43.8117
2019-05-12T11:13:18.109Z,41.3336
2019-05-12T11:14:26.320Z,41.1658
2019-05-12T11:15:29.297Z,44.1856
2019-05-12T11:16:34.453Z,43.5950
2019-05-12T11:17:40.174Z,46.0166
2019-05-12T11:18:43.731Z,43.9994
2019-05-12T11:19:51.335Z,45.1240
2019-05-12T11:20:55.306Z,45.3910
2019-05-12T11:21:58.280Z,42.7253
2019-05-12T11:23:03.298Z,42.0996
2019-05-12T11:24:07.297Z,41.7685
2019-05-12T11:25:10.389Z,42.9038
2019-05-12T11:26:14.184Z,42.6841
2019-05-12T11:27:17.332Z,42.3743
2019-05-12T11:28:20.326Z,43.8972
2019-05-12T11:29:23.641Z,43.7156
2019-05-12T11:30:27.339Z,45.1896
2019-05-12T11:31:30.281Z,47.4189
2019-05-12T11:32:34.928Z,46.1418
2019-05-12T11:33:43.471Z,46.4652
2019-05-12T11:34:47.308Z,46.3478
2019-05-12T11:35:50.343Z,47.5425
2019-05-12T11:36:54.532Z,45.9403
2019-05-12T11:37:56.279Z,45.7420
2019-05-12T11:38:59.298Z,45.5512
2019-05-12T11:40:04.272Z,46.1875
2019-05-12T11:41:09.908Z,47.4357
2019-05-12T11:42:15.286Z,46.7765
2019-05-12T11:43:18.318Z,45.8289
2019-05-12T11:44:23.177Z,47.9454
2019-05-12T11:45:26.371Z,48.8060
2019-05-12T11:46:29.265Z,48.5618
2019-05-12T11:47:35.572Z,48.5298
2019-05-12T11:48:45.184Z,49.2546
2019-05-12T11:49:48.281Z,49.2714
2019-05-12T11:50:51.472Z,48.7312
2019-05-12T11:51:54.495Z,49.1844
2019-05-12T11:52:57.300Z,48.7099
2019-05-12T11:54:03.414Z,48.9647
2019-05-12T11:55:08.295Z,49.6345
2019-05-12T11:56:10.332Z,48.3238
2019-05-12T11:57:13.310Z,48.0812
2019-05-12T11:58:16.338Z,49.4194
2019-05-12T11:59:19.305Z,46.8956
2019-05-12T12:00:24.197Z,45.9663
2019-05-12T12:01:27.335Z,43.8743
2019-05-12T12:02:30.630Z,43.8346
2019-05-12T12:03:34.290Z,42.0569
2019-05-12T12:04:37.315Z,42.3880
2019-05-12T12:05:40.285Z,42.8962
2019-05-12T12:06:43.811Z,40.9354
2019-05-12T12:07:51.379Z,40.0473
2019-05-12T12:08:54.298Z,40.8133
2019-05-12T12:09:59.444Z,40.1984
2019-05-12T12:11:03.975Z,37.7264
2019-05-12T12:12:07.539Z,38.4558
2019-05-12T12:13:10.281Z,39.4812
2019-05-12T12:14:14.269Z,38.6664
2019-05-12T12:15:20.472Z,37.3312
2019-05-12T12:16:25.334Z,37.7966
2019-05-12T12:17:31.017Z,40.9049
2019-05-12T12:18:35.312Z,36.1776
2019-05-12T12:19:43.851Z,39.1287
2019-05-12T12:20:46.322Z,37.5402
2019-05-12T12:21:50.155Z,37.9431
2019-05-12T12:22:54.259Z,40.2411
2019-05-12T12:23:57.320Z,39.5209
2019-05-12T12:25:03.186Z,38.6053
2019-05-12T12:26:08.324Z,40.4608
2019-05-12T12:27:11.316Z,44.4923
2019-05-12T12:28:14.366Z,44.6906
2019-05-12T12:29:17.289Z,45.4139
2019-05-12T12:30:20.315Z,45.7160
2019-05-12T12:31:23.832Z,43.6561
2019-05-12T12:32:27.343Z,44.4297
2019-05-12T12:33:31.130Z,44.9180
2019-05-12T12:34:38.320Z,45.2308
2019-05-12T12:35:41.372Z,44.1642
2019-05-12T12:36:44.260Z,43.5508
2019-05-12T12:37:47.343Z,45.9480
2019-05-12T12:38:50.296Z,44.8600
2019-05-12T12:39:53.662Z,45.8198
2019-05-12T12:40:57.283Z,44.5258
2019-05-12T12:42:00.897Z,46.2776
2019-05-12T12:43:04.333Z,44.6799
2019-05-12T12:44:07.273Z,44.2100
2019-05-12T12:45:10.346Z,42.0844
2019-05-12T12:46:18.178Z,41.1734
2019-05-12T12:47:23.691Z,37.6410
2019-05-12T12:48:29.741Z,36.6598
2019-05-12T12:49:33.947Z,39.4354
2019-05-12T12:50:37.283Z,40.6714
2019-05-12T12:51:40.310Z,40.7248
2019-05-12T12:52:44.855Z,43.0839
2019-05-12T12:53:51.358Z,41.7227
2019-05-12T12:54:54.407Z,43.5187
2019-05-12T12:55:58.672Z,44.4389
2019-05-12T12:57:06.322Z,43.4867